sensor_id;sensor_type;location;lat;lon;timestamp;P1;durP1;ratioP1;P2;durP2;ratioP2
21507;SDS011;10915;54.352;9.074;2023-12-29T00:02:21;27.27;;;5.30;;
21507;SDS011;10915;54.352;9.074;2023-12-29T00:04:46;28.57;;;5.70;;
21507;SDS011;10915;54.352;9.074;2023-12-29T00:07:12;21.87;;;5.87;;
21507;SDS011;10915;54.352;9.074;2023-12-29T00:09:37;22.53;;;5.93;;
21507;SDS011;10915;54.352;9.074;2023-12-29T00:12:05;20.17;;;4.70;;
21507;SDS011;10915;54.352;9.074;2023-12-29T00:14:32;23.73;;;4.80;;
21507;SDS011;10915;54.352;9.074;2023-12-29T00:16:58;26.03;;;4.33;;
21507;SDS011;10915;54.352;9.074;2023-12-29T00:19:24;21.23;;;4.47;;
21507;SDS011;10915;54.352;9.074;2023-12-29T00:21:50;16.10;;;4.60;;
21507;SDS011;10915;54.352;9.074;2023-12-29T00:24:16;19.17;;;4.63;;
21507;SDS011;10915;54.352;9.074;2023-12-29T00:26:42;25.83;;;5.17;;
21507;SDS011;10915;54.352;9.074;2023-12-29T00:29:07;29.20;;;4.97;;
21507;SDS011;10915;54.352;9.074;2023-12-29T00:31:33;18.30;;;4.73;;
21507;SDS011;10915;54.352;9.074;2023-12-29T00:33:59;18.47;;;4.40;;
21507;SDS011;10915;54.352;9.074;2023-12-29T00:36:24;20.37;;;5.03;;
21507;SDS011;10915;54.352;9.074;2023-12-29T00:38:50;18.33;;;4.50;;
21507;SDS011;10915;54.352;9.074;2023-12-29T00:41:16;17.33;;;4.67;;
21507;SDS011;10915;54.352;9.074;2023-12-29T00:43:41;20.17;;;4.70;;
21507;SDS011;10915;54.352;9.074;2023-12-29T00:46:07;14.73;;;4.20;;
21507;SDS011;10915;54.352;9.074;2023-12-29T00:48:33;17.23;;;4.17;;
21507;SDS011;10915;54.352;9.074;2023-12-29T00:51:03;17.60;;;4.03;;
21507;SDS011;10915;54.352;9.074;2023-12-29T00:53:29;15.60;;;4.00;;
21507;SDS011;10915;54.352;9.074;2023-12-29T00:55:57;21.97;;;5.03;;
21507;SDS011;10915;54.352;9.074;2023-12-29T00:58:23;15.90;;;4.60;;
21507;SDS011;10915;54.352;9.074;2023-12-29T01:00:48;17.43;;;4.30;;
21507;SDS011;10915;54.352;9.074;2023-12-29T01:03:14;18.47;;;4.63;;
21507;SDS011;10915;54.352;9.074;2023-12-29T01:05:39;16.20;;;4.47;;
21507;SDS011;10915;54.352;9.074;2023-12-29T01:08:05;18.37;;;4.37;;
21507;SDS011;10915;54.352;9.074;2023-12-29T01:10:30;17.07;;;4.33;;
21507;SDS011;10915;54.352;9.074;2023-12-29T01:12:56;22.87;;;4.80;;
21507;SDS011;10915;54.352;9.074;2023-12-29T01:15:22;17.73;;;4.90;;
21507;SDS011;10915;54.352;9.074;2023-12-29T01:17:47;20.03;;;4.80;;
21507;SDS011;10915;54.352;9.074;2023-12-29T01:20:13;20.80;;;5.13;;
21507;SDS011;10915;54.352;9.074;2023-12-29T01:22:38;19.77;;;5.03;;
21507;SDS011;10915;54.352;9.074;2023-12-29T01:25:04;23.43;;;5.50;;
21507;SDS011;10915;54.352;9.074;2023-12-29T01:27:30;23.33;;;5.13;;
21507;SDS011;10915;54.352;9.074;2023-12-29T01:29:56;28.13;;;5.60;;
21507;SDS011;10915;54.352;9.074;2023-12-29T01:32:22;19.80;;;5.23;;
21507;SDS011;10915;54.352;9.074;2023-12-29T01:34:47;20.30;;;6.10;;
21507;SDS011;10915;54.352;9.074;2023-12-29T01:37:13;26.90;;;6.53;;
21507;SDS011;10915;54.352;9.074;2023-12-29T01:39:39;19.97;;;5.37;;
21507;SDS011;10915;54.352;9.074;2023-12-29T01:42:05;26.27;;;5.97;;
21507;SDS011;10915;54.352;9.074;2023-12-29T01:44:31;25.77;;;6.87;;
21507;SDS011;10915;54.352;9.074;2023-12-29T01:46:59;24.27;;;6.17;;
21507;SDS011;10915;54.352;9.074;2023-12-29T01:49:25;27.03;;;5.90;;
21507;SDS011;10915;54.352;9.074;2023-12-29T01:51:58;29.50;;;6.83;;
21507;SDS011;10915;54.352;9.074;2023-12-29T01:54:26;22.87;;;5.90;;
21507;SDS011;10915;54.352;9.074;2023-12-29T01:56:54;23.47;;;6.83;;
21507;SDS011;10915;54.352;9.074;2023-12-29T01:59:24;22.07;;;6.30;;
21507;SDS011;10915;54.352;9.074;2023-12-29T02:01:50;26.13;;;6.57;;
21507;SDS011;10915;54.352;9.074;2023-12-29T02:04:18;27.73;;;6.83;;
21507;SDS011;10915;54.352;9.074;2023-12-29T02:06:43;27.60;;;6.73;;
21507;SDS011;10915;54.352;9.074;2023-12-29T02:09:09;31.00;;;7.17;;
21507;SDS011;10915;54.352;9.074;2023-12-29T02:11:37;28.73;;;7.43;;
21507;SDS011;10915;54.352;9.074;2023-12-29T02:14:03;21.17;;;6.43;;
21507;SDS011;10915;54.352;9.074;2023-12-29T02:16:35;29.97;;;6.90;;
21507;SDS011;10915;54.352;9.074;2023-12-29T02:19:05;26.67;;;5.90;;
21507;SDS011;10915;54.352;9.074;2023-12-29T02:22:00;32.03;;;6.30;;
21507;SDS011;10915;54.352;9.074;2023-12-29T02:24:25;33.83;;;6.27;;
21507;SDS011;10915;54.352;9.074;2023-12-29T02:26:53;25.27;;;6.50;;
21507;SDS011;10915;54.352;9.074;2023-12-29T02:29:36;35.20;;;7.50;;
21507;SDS011;10915;54.352;9.074;2023-12-29T02:32:05;30.67;;;7.77;;
21507;SDS011;10915;54.352;9.074;2023-12-29T02:34:35;34.97;;;7.40;;
21507;SDS011;10915;54.352;9.074;2023-12-29T02:37:03;34.57;;;7.30;;
21507;SDS011;10915;54.352;9.074;2023-12-29T02:39:29;41.37;;;7.77;;
21507;SDS011;10915;54.352;9.074;2023-12-29T02:41:56;29.50;;;6.90;;
21507;SDS011;10915;54.352;9.074;2023-12-29T02:44:22;35.67;;;8.30;;
21507;SDS011;10915;54.352;9.074;2023-12-29T02:46:47;34.27;;;8.07;;
21507;SDS011;10915;54.352;9.074;2023-12-29T02:49:13;33.17;;;7.83;;
21507;SDS011;10915;54.352;9.074;2023-12-29T02:51:39;33.37;;;6.80;;
21507;SDS011;10915;54.352;9.074;2023-12-29T02:54:05;32.77;;;7.07;;
21507;SDS011;10915;54.352;9.074;2023-12-29T02:56:32;32.47;;;6.20;;
21507;SDS011;10915;54.352;9.074;2023-12-29T02:58:58;33.33;;;6.10;;
21507;SDS011;10915;54.352;9.074;2023-12-29T03:01:23;25.83;;;6.67;;
21507;SDS011;10915;54.352;9.074;2023-12-29T03:03:49;26.33;;;6.53;;
21507;SDS011;10915;54.352;9.074;2023-12-29T03:06:14;24.90;;;5.53;;
21507;SDS011;10915;54.352;9.074;2023-12-29T03:08:40;26.23;;;6.50;;
21507;SDS011;10915;54.352;9.074;2023-12-29T03:11:06;29.93;;;6.43;;
21507;SDS011;10915;54.352;9.074;2023-12-29T03:13:31;25.80;;;6.87;;
21507;SDS011;10915;54.352;9.074;2023-12-29T03:15:57;30.67;;;7.00;;
21507;SDS011;10915;54.352;9.074;2023-12-29T03:18:22;26.60;;;6.27;;
21507;SDS011;10915;54.352;9.074;2023-12-29T03:20:48;31.20;;;7.13;;
21507;SDS011;10915;54.352;9.074;2023-12-29T03:23:14;26.10;;;6.53;;
21507;SDS011;10915;54.352;9.074;2023-12-29T03:25:39;31.53;;;6.50;;
21507;SDS011;10915;54.352;9.074;2023-12-29T03:28:05;29.50;;;7.03;;
21507;SDS011;10915;54.352;9.074;2023-12-29T03:30:30;38.43;;;7.73;;
21507;SDS011;10915;54.352;9.074;2023-12-29T03:32:56;24.80;;;5.60;;
21507;SDS011;10915;54.352;9.074;2023-12-29T03:35:22;26.23;;;6.43;;
21507;SDS011;10915;54.352;9.074;2023-12-29T03:37:47;34.27;;;7.27;;
21507;SDS011;10915;54.352;9.074;2023-12-29T03:40:13;26.27;;;5.37;;
21507;SDS011;10915;54.352;9.074;2023-12-29T03:42:39;36.67;;;7.33;;
21507;SDS011;10915;54.352;9.074;2023-12-29T03:45:06;31.40;;;7.03;;
21507;SDS011;10915;54.352;9.074;2023-12-29T03:47:32;29.40;;;5.90;;
21507;SDS011;10915;54.352;9.074;2023-12-29T03:49:57;30.47;;;6.50;;
21507;SDS011;10915;54.352;9.074;2023-12-29T03:52:23;33.33;;;6.87;;
21507;SDS011;10915;54.352;9.074;2023-12-29T03:54:48;25.13;;;6.67;;
21507;SDS011;10915;54.352;9.074;2023-12-29T03:57:14;34.23;;;7.17;;
21507;SDS011;10915;54.352;9.074;2023-12-29T03:59:40;27.43;;;6.20;;
21507;SDS011;10915;54.352;9.074;2023-12-29T04:02:05;27.93;;;6.17;;
21507;SDS011;10915;54.352;9.074;2023-12-29T04:04:31;28.83;;;7.37;;
21507;SDS011;10915;54.352;9.074;2023-12-29T04:06:57;34.37;;;7.23;;
21507;SDS011;10915;54.352;9.074;2023-12-29T04:09:22;24.03;;;5.27;;
21507;SDS011;10915;54.352;9.074;2023-12-29T04:11:48;27.77;;;6.13;;
21507;SDS011;10915;54.352;9.074;2023-12-29T04:14:13;23.77;;;6.27;;
21507;SDS011;10915;54.352;9.074;2023-12-29T04:16:39;32.43;;;5.87;;
21507;SDS011;10915;54.352;9.074;2023-12-29T04:19:05;32.40;;;6.93;;
21507;SDS011;10915;54.352;9.074;2023-12-29T04:21:31;27.83;;;5.77;;
21507;SDS011;10915;54.352;9.074;2023-12-29T04:23:56;30.50;;;6.30;;
21507;SDS011;10915;54.352;9.074;2023-12-29T04:26:22;29.83;;;6.97;;
21507;SDS011;10915;54.352;9.074;2023-12-29T04:28:47;30.13;;;6.27;;
21507;SDS011;10915;54.352;9.074;2023-12-29T04:31:13;22.83;;;6.47;;
21507;SDS011;10915;54.352;9.074;2023-12-29T04:33:39;30.63;;;6.90;;
21507;SDS011;10915;54.352;9.074;2023-12-29T04:36:04;30.00;;;6.07;;
21507;SDS011;10915;54.352;9.074;2023-12-29T04:38:30;30.63;;;6.63;;
21507;SDS011;10915;54.352;9.074;2023-12-29T04:40:56;24.23;;;5.43;;
21507;SDS011;10915;54.352;9.074;2023-12-29T04:43:21;27.33;;;6.43;;
21507;SDS011;10915;54.352;9.074;2023-12-29T04:45:47;25.70;;;6.00;;
21507;SDS011;10915;54.352;9.074;2023-12-29T04:48:12;31.23;;;6.83;;
21507;SDS011;10915;54.352;9.074;2023-12-29T04:50:38;33.00;;;6.37;;
21507;SDS011;10915;54.352;9.074;2023-12-29T04:53:04;26.77;;;6.33;;
21507;SDS011;10915;54.352;9.074;2023-12-29T04:55:29;28.23;;;6.40;;
21507;SDS011;10915;54.352;9.074;2023-12-29T04:57:55;45.60;;;8.03;;
21507;SDS011;10915;54.352;9.074;2023-12-29T05:00:20;31.83;;;7.13;;
21507;SDS011;10915;54.352;9.074;2023-12-29T05:02:46;35.20;;;7.67;;
21507;SDS011;10915;54.352;9.074;2023-12-29T05:05:12;38.93;;;7.53;;
21507;SDS011;10915;54.352;9.074;2023-12-29T05:07:37;37.63;;;7.97;;
21507;SDS011;10915;54.352;9.074;2023-12-29T05:10:03;43.63;;;8.50;;
21507;SDS011;10915;54.352;9.074;2023-12-29T05:12:29;36.67;;;8.00;;
21507;SDS011;10915;54.352;9.074;2023-12-29T05:14:55;38.60;;;8.50;;
21507;SDS011;10915;54.352;9.074;2023-12-29T05:17:20;41.57;;;7.63;;
21507;SDS011;10915;54.352;9.074;2023-12-29T05:19:46;36.60;;;8.07;;
21507;SDS011;10915;54.352;9.074;2023-12-29T05:22:12;38.80;;;7.97;;
21507;SDS011;10915;54.352;9.074;2023-12-29T05:24:40;38.90;;;7.57;;
21507;SDS011;10915;54.352;9.074;2023-12-29T05:27:07;38.10;;;8.17;;
21507;SDS011;10915;54.352;9.074;2023-12-29T05:29:32;29.03;;;7.10;;
21507;SDS011;10915;54.352;9.074;2023-12-29T05:31:58;36.60;;;7.93;;
21507;SDS011;10915;54.352;9.074;2023-12-29T05:34:23;34.43;;;7.80;;
21507;SDS011;10915;54.352;9.074;2023-12-29T05:36:49;39.30;;;8.43;;
21507;SDS011;10915;54.352;9.074;2023-12-29T05:39:15;41.97;;;8.63;;
21507;SDS011;10915;54.352;9.074;2023-12-29T05:41:40;40.63;;;8.97;;
21507;SDS011;10915;54.352;9.074;2023-12-29T05:44:06;43.87;;;10.33;;
21507;SDS011;10915;54.352;9.074;2023-12-29T05:46:32;40.50;;;9.13;;
21507;SDS011;10915;54.352;9.074;2023-12-29T05:48:57;39.93;;;10.07;;
21507;SDS011;10915;54.352;9.074;2023-12-29T05:51:23;37.47;;;8.13;;
21507;SDS011;10915;54.352;9.074;2023-12-29T05:53:49;45.90;;;9.77;;
21507;SDS011;10915;54.352;9.074;2023-12-29T05:56:15;36.67;;;9.80;;
21507;SDS011;10915;54.352;9.074;2023-12-29T05:58:41;44.50;;;10.67;;
21507;SDS011;10915;54.352;9.074;2023-12-29T06:01:09;49.07;;;10.53;;
21507;SDS011;10915;54.352;9.074;2023-12-29T06:03:35;45.33;;;11.23;;
21507;SDS011;10915;54.352;9.074;2023-12-29T06:06:01;45.83;;;9.43;;
21507;SDS011;10915;54.352;9.074;2023-12-29T06:08:27;42.30;;;8.77;;
21507;SDS011;10915;54.352;9.074;2023-12-29T06:10:53;51.00;;;12.23;;
21507;SDS011;10915;54.352;9.074;2023-12-29T06:13:18;47.93;;;10.03;;
21507;SDS011;10915;54.352;9.074;2023-12-29T06:15:44;41.97;;;9.27;;
21507;SDS011;10915;54.352;9.074;2023-12-29T06:18:10;42.23;;;10.13;;
21507;SDS011;10915;54.352;9.074;2023-12-29T06:20:35;42.17;;;8.73;;
21507;SDS011;10915;54.352;9.074;2023-12-29T06:23:01;44.63;;;10.00;;
21507;SDS011;10915;54.352;9.074;2023-12-29T06:25:27;42.17;;;9.80;;
21507;SDS011;10915;54.352;9.074;2023-12-29T06:27:53;41.50;;;10.07;;
21507;SDS011;10915;54.352;9.074;2023-12-29T06:30:19;33.23;;;9.00;;
21507;SDS011;10915;54.352;9.074;2023-12-29T06:32:45;43.33;;;9.00;;
21507;SDS011;10915;54.352;9.074;2023-12-29T06:35:11;39.63;;;9.90;;
21507;SDS011;10915;54.352;9.074;2023-12-29T06:37:37;40.63;;;9.83;;
21507;SDS011;10915;54.352;9.074;2023-12-29T06:40:04;44.37;;;9.27;;
21507;SDS011;10915;54.352;9.074;2023-12-29T06:42:31;46.57;;;10.50;;
21507;SDS011;10915;54.352;9.074;2023-12-29T06:44:57;43.33;;;9.77;;
21507;SDS011;10915;54.352;9.074;2023-12-29T06:47:23;47.33;;;11.20;;
21507;SDS011;10915;54.352;9.074;2023-12-29T06:49:48;46.80;;;9.60;;
21507;SDS011;10915;54.352;9.074;2023-12-29T06:52:14;40.47;;;9.23;;
21507;SDS011;10915;54.352;9.074;2023-12-29T06:54:41;36.87;;;8.60;;
21507;SDS011;10915;54.352;9.074;2023-12-29T06:57:06;44.73;;;10.60;;
21507;SDS011;10915;54.352;9.074;2023-12-29T06:59:32;38.47;;;9.30;;
21507;SDS011;10915;54.352;9.074;2023-12-29T07:01:57;37.27;;;9.10;;
21507;SDS011;10915;54.352;9.074;2023-12-29T07:04:23;41.50;;;9.13;;
21507;SDS011;10915;54.352;9.074;2023-12-29T07:06:49;43.20;;;9.17;;
21507;SDS011;10915;54.352;9.074;2023-12-29T07:09:14;36.57;;;8.80;;
21507;SDS011;10915;54.352;9.074;2023-12-29T07:11:40;35.50;;;8.73;;
21507;SDS011;10915;54.352;9.074;2023-12-29T07:14:05;44.83;;;8.60;;
21507;SDS011;10915;54.352;9.074;2023-12-29T07:16:31;41.37;;;9.63;;
21507;SDS011;10915;54.352;9.074;2023-12-29T07:18:57;34.37;;;8.10;;
21507;SDS011;10915;54.352;9.074;2023-12-29T07:21:22;39.27;;;9.33;;
21507;SDS011;10915;54.352;9.074;2023-12-29T07:23:48;37.67;;;8.70;;
21507;SDS011;10915;54.352;9.074;2023-12-29T07:26:14;40.30;;;9.37;;
21507;SDS011;10915;54.352;9.074;2023-12-29T07:28:39;35.53;;;8.63;;
21507;SDS011;10915;54.352;9.074;2023-12-29T07:31:05;34.40;;;8.67;;
21507;SDS011;10915;54.352;9.074;2023-12-29T07:33:31;40.33;;;8.77;;
21507;SDS011;10915;54.352;9.074;2023-12-29T07:35:56;39.90;;;11.23;;
21507;SDS011;10915;54.352;9.074;2023-12-29T07:38:22;38.27;;;9.27;;
21507;SDS011;10915;54.352;9.074;2023-12-29T07:40:49;43.90;;;10.97;;
21507;SDS011;10915;54.352;9.074;2023-12-29T07:43:14;47.23;;;13.13;;
21507;SDS011;10915;54.352;9.074;2023-12-29T07:45:40;43.47;;;13.83;;
21507;SDS011;10915;54.352;9.074;2023-12-29T07:48:08;33.93;;;9.90;;
21507;SDS011;10915;54.352;9.074;2023-12-29T07:50:33;36.47;;;8.43;;
21507;SDS011;10915;54.352;9.074;2023-12-29T07:52:59;37.17;;;9.80;;
21507;SDS011;10915;54.352;9.074;2023-12-29T07:55:28;40.30;;;9.37;;
21507;SDS011;10915;54.352;9.074;2023-12-29T07:57:54;32.83;;;8.40;;
21507;SDS011;10915;54.352;9.074;2023-12-29T08:00:19;32.27;;;9.13;;
21507;SDS011;10915;54.352;9.074;2023-12-29T08:02:45;30.20;;;7.80;;
21507;SDS011;10915;54.352;9.074;2023-12-29T08:05:11;35.97;;;8.07;;
21507;SDS011;10915;54.352;9.074;2023-12-29T08:07:36;36.50;;;9.43;;
21507;SDS011;10915;54.352;9.074;2023-12-29T08:10:04;36.33;;;9.07;;
21507;SDS011;10915;54.352;9.074;2023-12-29T08:12:30;43.33;;;11.73;;
21507;SDS011;10915;54.352;9.074;2023-12-29T08:14:58;34.30;;;8.47;;
21507;SDS011;10915;54.352;9.074;2023-12-29T08:17:23;31.40;;;8.10;;
21507;SDS011;10915;54.352;9.074;2023-12-29T08:19:49;33.53;;;8.03;;
21507;SDS011;10915;54.352;9.074;2023-12-29T08:22:15;32.97;;;8.40;;
21507;SDS011;10915;54.352;9.074;2023-12-29T08:24:40;39.40;;;9.13;;
21507;SDS011;10915;54.352;9.074;2023-12-29T08:27:09;44.60;;;9.53;;
21507;SDS011;10915;54.352;9.074;2023-12-29T08:29:37;36.00;;;9.77;;
21507;SDS011;10915;54.352;9.074;2023-12-29T08:32:03;36.33;;;8.90;;
21507;SDS011;10915;54.352;9.074;2023-12-29T08:34:29;33.60;;;10.17;;
21507;SDS011;10915;54.352;9.074;2023-12-29T08:36:54;36.90;;;8.73;;
21507;SDS011;10915;54.352;9.074;2023-12-29T08:39:20;43.10;;;9.27;;
21507;SDS011;10915;54.352;9.074;2023-12-29T08:41:46;36.53;;;8.20;;
21507;SDS011;10915;54.352;9.074;2023-12-29T08:44:12;44.90;;;9.77;;
21507;SDS011;10915;54.352;9.074;2023-12-29T08:46:37;35.70;;;9.43;;
21507;SDS011;10915;54.352;9.074;2023-12-29T08:49:03;34.93;;;9.03;;
21507;SDS011;10915;54.352;9.074;2023-12-29T08:51:29;36.73;;;8.73;;
21507;SDS011;10915;54.352;9.074;2023-12-29T08:53:54;34.47;;;9.23;;
21507;SDS011;10915;54.352;9.074;2023-12-29T08:56:20;32.33;;;7.67;;
21507;SDS011;10915;54.352;9.074;2023-12-29T08:58:46;37.33;;;8.17;;
21507;SDS011;10915;54.352;9.074;2023-12-29T09:01:11;38.20;;;8.57;;
21507;SDS011;10915;54.352;9.074;2023-12-29T09:03:37;35.80;;;8.20;;
21507;SDS011;10915;54.352;9.074;2023-12-29T09:06:03;34.30;;;8.37;;
21507;SDS011;10915;54.352;9.074;2023-12-29T09:08:29;41.17;;;9.33;;
21507;SDS011;10915;54.352;9.074;2023-12-29T09:10:55;32.60;;;8.20;;
21507;SDS011;10915;54.352;9.074;2023-12-29T09:13:21;28.03;;;7.17;;
21507;SDS011;10915;54.352;9.074;2023-12-29T09:15:50;40.30;;;9.13;;
21507;SDS011;10915;54.352;9.074;2023-12-29T09:18:15;33.97;;;8.40;;
21507;SDS011;10915;54.352;9.074;2023-12-29T09:20:41;32.07;;;8.03;;
21507;SDS011;10915;54.352;9.074;2023-12-29T09:23:07;41.47;;;8.30;;
21507;SDS011;10915;54.352;9.074;2023-12-29T09:25:32;32.40;;;6.97;;
21507;SDS011;10915;54.352;9.074;2023-12-29T09:27:58;37.00;;;8.07;;
21507;SDS011;10915;54.352;9.074;2023-12-29T09:30:24;39.40;;;9.10;;
21507;SDS011;10915;54.352;9.074;2023-12-29T09:32:49;31.07;;;8.33;;
21507;SDS011;10915;54.352;9.074;2023-12-29T09:35:15;29.90;;;7.53;;
21507;SDS011;10915;54.352;9.074;2023-12-29T09:37:42;31.67;;;7.73;;
21507;SDS011;10915;54.352;9.074;2023-12-29T09:40:08;46.57;;;8.33;;
21507;SDS011;10915;54.352;9.074;2023-12-29T09:42:35;36.93;;;8.10;;
21507;SDS011;10915;54.352;9.074;2023-12-29T09:45:03;30.57;;;7.60;;
21507;SDS011;10915;54.352;9.074;2023-12-29T09:47:34;37.13;;;8.27;;
21507;SDS011;10915;54.352;9.074;2023-12-29T09:50:15;40.67;;;8.70;;
21507;SDS011;10915;54.352;9.074;2023-12-29T09:52:41;36.50;;;7.37;;
21507;SDS011;10915;54.352;9.074;2023-12-29T09:55:08;37.83;;;8.17;;
21507;SDS011;10915;54.352;9.074;2023-12-29T09:57:36;36.77;;;7.87;;
21507;SDS011;10915;54.352;9.074;2023-12-29T10:00:02;35.30;;;8.17;;
21507;SDS011;10915;54.352;9.074;2023-12-29T10:02:28;38.30;;;9.07;;
21507;SDS011;10915;54.352;9.074;2023-12-29T10:04:55;34.73;;;9.70;;
21507;SDS011;10915;54.352;9.074;2023-12-29T10:07:25;30.93;;;7.83;;
21507;SDS011;10915;54.352;9.074;2023-12-29T10:09:55;36.97;;;8.67;;
21507;SDS011;10915;54.352;9.074;2023-12-29T10:12:22;38.33;;;9.37;;
21507;SDS011;10915;54.352;9.074;2023-12-29T10:15:32;34.97;;;8.77;;
21507;SDS011;10915;54.352;9.074;2023-12-29T10:18:22;36.00;;;8.93;;
21507;SDS011;10915;54.352;9.074;2023-12-29T10:21:02;38.77;;;9.07;;
21507;SDS011;10915;54.352;9.074;2023-12-29T10:23:41;45.83;;;9.47;;
21507;SDS011;10915;54.352;9.074;2023-12-29T10:26:11;32.70;;;7.50;;
21507;SDS011;10915;54.352;9.074;2023-12-29T10:28:37;41.20;;;8.20;;
21507;SDS011;10915;54.352;9.074;2023-12-29T10:31:04;37.40;;;7.20;;
21507;SDS011;10915;54.352;9.074;2023-12-29T10:33:29;38.73;;;9.07;;
21507;SDS011;10915;54.352;9.074;2023-12-29T10:36:00;36.10;;;8.07;;
21507;SDS011;10915;54.352;9.074;2023-12-29T10:38:32;33.93;;;8.00;;
21507;SDS011;10915;54.352;9.074;2023-12-29T10:41:15;40.53;;;8.70;;
21507;SDS011;10915;54.352;9.074;2023-12-29T10:43:42;30.77;;;7.10;;
21507;SDS011;10915;54.352;9.074;2023-12-29T10:46:09;36.90;;;8.60;;
21507;SDS011;10915;54.352;9.074;2023-12-29T10:48:36;39.90;;;7.93;;
21507;SDS011;10915;54.352;9.074;2023-12-29T10:51:03;38.97;;;7.87;;
21507;SDS011;10915;54.352;9.074;2023-12-29T10:53:32;40.90;;;8.77;;
21507;SDS011;10915;54.352;9.074;2023-12-29T10:55:59;36.93;;;9.07;;
21507;SDS011;10915;54.352;9.074;2023-12-29T10:58:25;34.63;;;7.63;;
21507;SDS011;10915;54.352;9.074;2023-12-29T11:00:54;38.93;;;8.37;;
21507;SDS011;10915;54.352;9.074;2023-12-29T11:03:21;38.73;;;8.83;;
21507;SDS011;10915;54.352;9.074;2023-12-29T11:05:47;30.30;;;7.43;;
21507;SDS011;10915;54.352;9.074;2023-12-29T11:08:19;35.60;;;8.97;;
21507;SDS011;10915;54.352;9.074;2023-12-29T11:10:49;34.57;;;7.77;;
21507;SDS011;10915;54.352;9.074;2023-12-29T11:13:15;30.50;;;7.30;;
21507;SDS011;10915;54.352;9.074;2023-12-29T11:15:44;37.50;;;9.27;;
21507;SDS011;10915;54.352;9.074;2023-12-29T11:18:14;33.53;;;7.50;;
21507;SDS011;10915;54.352;9.074;2023-12-29T11:20:41;28.97;;;6.20;;
21507;SDS011;10915;54.352;9.074;2023-12-29T11:23:08;30.10;;;7.13;;
21507;SDS011;10915;54.352;9.074;2023-12-29T11:25:36;35.60;;;7.60;;
21507;SDS011;10915;54.352;9.074;2023-12-29T11:28:02;32.23;;;6.97;;
21507;SDS011;10915;54.352;9.074;2023-12-29T11:30:29;36.93;;;7.93;;
21507;SDS011;10915;54.352;9.074;2023-12-29T11:32:57;34.33;;;7.60;;
21507;SDS011;10915;54.352;9.074;2023-12-29T11:38:39;36.40;;;7.93;;
21507;SDS011;10915;54.352;9.074;2023-12-29T11:43:57;35.77;;;7.77;;
21507;SDS011;10915;54.352;9.074;2023-12-29T11:46:33;33.93;;;7.77;;
21507;SDS011;10915;54.352;9.074;2023-12-29T11:49:03;38.73;;;9.13;;
21507;SDS011;10915;54.352;9.074;2023-12-29T11:51:42;38.70;;;11.27;;
21507;SDS011;10915;54.352;9.074;2023-12-29T11:54:09;29.07;;;7.77;;
21507;SDS011;10915;54.352;9.074;2023-12-29T12:01:49;37.13;;;8.47;;
21507;SDS011;10915;54.352;9.074;2023-12-29T12:04:35;37.20;;;9.03;;
21507;SDS011;10915;54.352;9.074;2023-12-29T12:09:37;47.63;;;8.17;;
21507;SDS011;10915;54.352;9.074;2023-12-29T12:12:04;43.73;;;8.73;;
21507;SDS011;10915;54.352;9.074;2023-12-29T12:14:46;42.57;;;9.10;;
21507;SDS011;10915;54.352;9.074;2023-12-29T12:17:26;37.10;;;8.27;;
21507;SDS011;10915;54.352;9.074;2023-12-29T12:19:57;37.03;;;8.53;;
21507;SDS011;10915;54.352;9.074;2023-12-29T12:22:24;38.53;;;7.97;;
21507;SDS011;10915;54.352;9.074;2023-12-29T12:24:56;35.67;;;8.03;;
21507;SDS011;10915;54.352;9.074;2023-12-29T12:27:25;40.30;;;8.50;;
21507;SDS011;10915;54.352;9.074;2023-12-29T12:29:53;35.67;;;7.83;;
21507;SDS011;10915;54.352;9.074;2023-12-29T12:32:24;34.60;;;6.80;;
21507;SDS011;10915;54.352;9.074;2023-12-29T12:34:52;37.03;;;7.17;;
21507;SDS011;10915;54.352;9.074;2023-12-29T12:37:27;33.07;;;8.07;;
21507;SDS011;10915;54.352;9.074;2023-12-29T12:39:54;36.43;;;8.20;;
21507;SDS011;10915;54.352;9.074;2023-12-29T12:42:20;37.27;;;7.20;;
21507;SDS011;10915;54.352;9.074;2023-12-29T12:44:54;31.87;;;6.47;;
21507;SDS011;10915;54.352;9.074;2023-12-29T12:47:55;31.17;;;6.53;;
21507;SDS011;10915;54.352;9.074;2023-12-29T12:50:27;24.53;;;6.63;;
21507;SDS011;10915;54.352;9.074;2023-12-29T12:52:52;29.80;;;5.97;;
21507;SDS011;10915;54.352;9.074;2023-12-29T12:55:18;33.73;;;6.63;;
21507;SDS011;10915;54.352;9.074;2023-12-29T12:57:44;28.27;;;5.90;;
21507;SDS011;10915;54.352;9.074;2023-12-29T13:00:10;33.77;;;6.40;;
21507;SDS011;10915;54.352;9.074;2023-12-29T13:02:37;27.03;;;5.97;;
21507;SDS011;10915;54.352;9.074;2023-12-29T13:05:03;26.57;;;6.97;;
21507;SDS011;10915;54.352;9.074;2023-12-29T13:07:32;30.47;;;6.80;;
21507;SDS011;10915;54.352;9.074;2023-12-29T13:09:59;37.67;;;7.27;;
21507;SDS011;10915;54.352;9.074;2023-12-29T13:12:27;33.87;;;7.57;;
21507;SDS011;10915;54.352;9.074;2023-12-29T13:14:52;32.60;;;7.57;;
21507;SDS011;10915;54.352;9.074;2023-12-29T13:17:18;33.00;;;7.37;;
21507;SDS011;10915;54.352;9.074;2023-12-29T13:19:53;31.83;;;7.07;;
21507;SDS011;10915;54.352;9.074;2023-12-29T13:22:22;34.40;;;7.93;;
21507;SDS011;10915;54.352;9.074;2023-12-29T13:24:48;26.83;;;6.63;;
21507;SDS011;10915;54.352;9.074;2023-12-29T13:27:14;28.83;;;6.60;;
21507;SDS011;10915;54.352;9.074;2023-12-29T13:29:40;30.63;;;7.37;;
21507;SDS011;10915;54.352;9.074;2023-12-29T13:32:09;24.50;;;6.80;;
21507;SDS011;10915;54.352;9.074;2023-12-29T13:34:39;35.03;;;7.47;;
21507;SDS011;10915;54.352;9.074;2023-12-29T13:42:47;25.43;;;6.63;;
21507;SDS011;10915;54.352;9.074;2023-12-29T13:45:15;31.70;;;8.47;;
21507;SDS011;10915;54.352;9.074;2023-12-29T13:47:43;29.23;;;6.50;;
21507;SDS011;10915;54.352;9.074;2023-12-29T13:50:09;26.17;;;6.77;;
21507;SDS011;10915;54.352;9.074;2023-12-29T13:52:35;32.40;;;7.17;;
21507;SDS011;10915;54.352;9.074;2023-12-29T13:55:02;26.37;;;7.30;;
21507;SDS011;10915;54.352;9.074;2023-12-29T13:57:32;37.70;;;7.60;;
21507;SDS011;10915;54.352;9.074;2023-12-29T14:00:13;33.97;;;9.10;;
21507;SDS011;10915;54.352;9.074;2023-12-29T14:05:24;33.03;;;7.77;;
21507;SDS011;10915;54.352;9.074;2023-12-29T14:08:00;36.10;;;8.30;;
21507;SDS011;10915;54.352;9.074;2023-12-29T14:10:32;30.27;;;6.67;;
21507;SDS011;10915;54.352;9.074;2023-12-29T14:15:44;28.80;;;7.67;;
21507;SDS011;10915;54.352;9.074;2023-12-29T14:24:08;29.00;;;7.47;;
21507;SDS011;10915;54.352;9.074;2023-12-29T14:26:41;32.70;;;7.90;;
21507;SDS011;10915;54.352;9.074;2023-12-29T14:29:19;37.53;;;7.23;;
21507;SDS011;10915;54.352;9.074;2023-12-29T14:31:46;28.83;;;6.87;;
21507;SDS011;10915;54.352;9.074;2023-12-29T14:34:13;29.80;;;7.30;;
21507;SDS011;10915;54.352;9.074;2023-12-29T14:36:40;28.63;;;7.40;;
21507;SDS011;10915;54.352;9.074;2023-12-29T14:39:07;24.37;;;7.53;;
21507;SDS011;10915;54.352;9.074;2023-12-29T14:41:34;29.60;;;7.07;;
21507;SDS011;10915;54.352;9.074;2023-12-29T14:44:01;33.03;;;8.03;;
21507;SDS011;10915;54.352;9.074;2023-12-29T14:46:26;32.90;;;7.80;;
21507;SDS011;10915;54.352;9.074;2023-12-29T14:48:53;30.20;;;7.93;;
21507;SDS011;10915;54.352;9.074;2023-12-29T14:51:19;36.17;;;8.20;;
21507;SDS011;10915;54.352;9.074;2023-12-29T14:53:46;33.33;;;7.73;;
21507;SDS011;10915;54.352;9.074;2023-12-29T14:56:13;30.47;;;7.13;;
21507;SDS011;10915;54.352;9.074;2023-12-29T14:58:39;28.00;;;6.80;;
21507;SDS011;10915;54.352;9.074;2023-12-29T15:01:05;36.73;;;8.70;;
21507;SDS011;10915;54.352;9.074;2023-12-29T15:03:32;38.00;;;8.03;;
21507;SDS011;10915;54.352;9.074;2023-12-29T15:05:58;32.77;;;8.23;;